createdAt,value
2017-07-24T00:00:02.484Z,14.16
2017-07-24T00:00:50.890Z,14.19
2017-07-24T00:01:39.660Z,14.18
2017-07-24T00:02:27.667Z,14.16
2017-07-24T00:03:15.680Z,14.18
2017-07-24T00:04:04.791Z,14.16
2017-07-24T00:04:52.693Z,14.15
2017-07-24T00:05:40.805Z,14.16
2017-07-24T00:06:29.815Z,14.15
2017-07-24T00:07:17.917Z,14.14
2017-07-24T00:08:05.866Z,14.17
2017-07-24T00:08:54.917Z,14.15
2017-07-24T00:09:42.966Z,14.16
2017-07-24T00:10:30.936Z,14.14
2017-07-24T00:11:25.190Z,14.12
2017-07-24T00:12:13.107Z,14.12
2017-07-24T00:13:02.243Z,14.11
2017-07-24T00:13:50.225Z,14.13
2017-07-24T00:14:38.341Z,14.12
2017-07-24T00:15:26.343Z,14.14
2017-07-24T00:16:15.296Z,14.16
2017-07-24T00:17:03.456Z,14.16
2017-07-24T00:17:52.367Z,14.17
2017-07-24T00:18:40.250Z,14.18
2017-07-24T00:19:28.311Z,14.19
2017-07-24T00:20:17.650Z,14.19
2017-07-24T00:21:05.687Z,14.20
2017-07-24T00:21:53.460Z,14.20
2017-07-24T00:22:42.768Z,14.20
2017-07-24T00:23:30.807Z,14.22
2017-07-24T00:24:18.775Z,14.28
2017-07-24T00:25:07.900Z,14.27
2017-07-24T00:25:55.907Z,14.26
2017-07-24T00:26:43.889Z,14.25
2017-07-24T00:27:32.001Z,14.26
2017-07-24T00:28:20.946Z,14.26
2017-07-24T00:29:09.055Z,14.24
2017-07-24T00:29:57.085Z,14.26
2017-07-24T00:30:45.178Z,14.27
2017-07-24T00:31:39.085Z,14.27
2017-07-24T00:32:28.336Z,14.24
2017-07-24T00:33:16.261Z,14.23
2017-07-24T00:34:05.328Z,14.23
2017-07-24T00:34:53.339Z,14.22
2017-07-24T00:35:41.464Z,14.21
2017-07-24T00:36:29.504Z,14.20
2017-07-24T00:37:18.501Z,14.20
2017-07-24T00:38:06.623Z,14.21
2017-07-24T00:38:54.485Z,14.20
2017-07-24T00:39:43.614Z,14.20
2017-07-24T00:40:31.682Z,14.20
2017-07-24T00:41:19.702Z,14.20
2017-07-24T00:42:08.815Z,14.18
2017-07-24T00:42:56.701Z,14.16
2017-07-24T00:43:44.851Z,14.16
2017-07-24T00:44:33.844Z,14.17
2017-07-24T00:45:22.021Z,14.17
2017-07-24T00:46:09.953Z,14.16
2017-07-24T00:46:58.993Z,14.16
2017-07-24T00:47:53.060Z,14.18
2017-07-24T00:48:41.101Z,14.16
2017-07-24T00:49:29.148Z,14.16
2017-07-24T00:50:17.215Z,14.18
2017-07-24T00:51:06.290Z,14.19
2017-07-24T00:51:54.295Z,14.18
2017-07-24T00:52:42.318Z,14.13
2017-07-24T00:53:31.334Z,14.14
2017-07-24T00:54:19.489Z,14.12
2017-07-24T00:55:07.465Z,14.12
2017-07-24T00:55:55.479Z,14.12
2017-07-24T00:56:43.508Z,14.12
2017-07-24T00:57:31.783Z,14.11
2017-07-24T00:58:19.462Z,14.13
2017-07-24T00:59:07.460Z,14.14
2017-07-24T00:59:55.618Z,14.15
2017-07-24T01:00:43.507Z,14.16
2017-07-24T01:01:37.550Z,14.18
2017-07-24T01:02:26.667Z,14.17
2017-07-24T01:03:14.718Z,14.20
2017-07-24T01:04:03.714Z,14.20
2017-07-24T01:04:51.782Z,14.17
2017-07-24T01:05:39.860Z,14.17
2017-07-24T01:06:27.775Z,14.15
2017-07-24T01:07:27.823Z,14.14
2017-07-24T01:08:15.965Z,14.16
2017-07-24T01:09:04.001Z,14.15
2017-07-24T01:09:51.974Z,14.14
2017-07-24T01:10:39.997Z,14.17
2017-07-24T01:11:29.121Z,14.20
2017-07-24T01:12:17.117Z,14.23
2017-07-24T01:13:05.232Z,14.26
2017-07-24T01:13:53.295Z,14.24
2017-07-24T01:14:47.308Z,14.24
2017-07-24T01:15:36.386Z,14.20
2017-07-24T01:16:24.353Z,14.18
2017-07-24T01:17:13.642Z,14.18
2017-07-24T01:18:01.416Z,14.16
2017-07-24T01:18:49.406Z,14.16
2017-07-24T01:19:38.530Z,14.13
2017-07-24T01:20:26.487Z,14.14
2017-07-24T01:21:14.654Z,14.13
2017-07-24T01:22:03.868Z,14.14
2017-07-24T01:22:51.938Z,14.08
2017-07-24T01:23:39.718Z,14.09
2017-07-24T01:24:28.696Z,14.09
2017-07-24T01:25:16.880Z,14.10
2017-07-24T01:26:04.874Z,14.10
2017-07-24T01:26:53.858Z,14.09
2017-07-24T01:27:42.134Z,14.07
2017-07-24T01:28:30.016Z,14.09
2017-07-24T01:29:19.066Z,14.07
2017-07-24T01:30:07.101Z,14.06
2017-07-24T01:30:55.278Z,14.07
2017-07-24T01:31:44.187Z,14.06
2017-07-24T01:32:32.497Z,14.05
2017-07-24T01:33:20.221Z,14.06
2017-07-24T01:34:09.326Z,14.06
2017-07-24T01:34:57.342Z,14.04
2017-07-24T01:35:45.592Z,14.07
2017-07-24T01:36:34.473Z,14.06
2017-07-24T01:37:22.729Z,14.06
2017-07-24T01:38:10.515Z,14.08
2017-07-24T01:38:59.569Z,14.10
2017-07-24T01:39:47.646Z,14.12
2017-07-24T01:40:35.694Z,14.12
2017-07-24T01:41:24.731Z,14.17
2017-07-24T01:42:12.963Z,14.18
2017-07-24T01:43:00.798Z,14.22
2017-07-24T01:43:48.773Z,14.22
2017-07-24T01:44:37.837Z,14.23
2017-07-24T01:45:25.994Z,14.21
2017-07-24T01:46:15.033Z,14.22
2017-07-24T01:47:03.048Z,14.20
2017-07-24T01:47:52.415Z,14.16
2017-07-24T01:48:40.103Z,14.21
2017-07-24T01:49:28.115Z,14.20
2017-07-24T01:50:16.168Z,14.20
2017-07-24T01:51:05.398Z,14.20
2017-07-24T01:51:53.218Z,14.18
2017-07-24T01:52:41.381Z,14.16
2017-07-24T01:53:30.375Z,14.18
2017-07-24T01:54:18.396Z,14.20
2017-07-24T01:55:06.445Z,14.18
2017-07-24T01:55:55.501Z,14.20
2017-07-24T01:56:43.525Z,14.21
2017-07-24T01:57:31.868Z,14.19
2017-07-24T01:58:20.835Z,14.24
2017-07-24T01:59:08.734Z,14.20
2017-07-24T01:59:56.707Z,14.20
2017-07-24T02:00:45.752Z,14.21
2017-07-24T02:01:34.052Z,14.21
2017-07-24T02:02:22.063Z,14.18
2017-07-24T02:03:10.861Z,14.19
2017-07-24T02:03:58.970Z,14.18
2017-07-24T02:04:46.955Z,14.18
2017-07-24T02:05:35.004Z,14.20
2017-07-24T02:06:24.330Z,14.18
2017-07-24T02:07:12.304Z,14.17
2017-07-24T02:08:00.180Z,14.18
2017-07-24T02:08:49.338Z,14.16
2017-07-24T02:09:37.311Z,14.16
2017-07-24T02:10:26.337Z,14.16
2017-07-24T02:11:14.313Z,14.14
2017-07-24T02:12:02.384Z,14.16
2017-07-24T02:12:51.774Z,14.15
2017-07-24T02:13:39.425Z,14.17
2017-07-24T02:14:27.510Z,14.18
2017-07-24T02:15:16.509Z,14.20
2017-07-24T02:16:04.631Z,14.24
2017-07-24T02:16:52.786Z,14.23
2017-07-24T02:17:40.898Z,14.23
2017-07-24T02:18:29.804Z,14.26
2017-07-24T02:19:17.760Z,14.24
2017-07-24T02:20:06.846Z,14.26
2017-07-24T02:20:54.822Z,14.26
2017-07-24T02:21:43.313Z,14.26
2017-07-24T02:22:32.278Z,14.27
2017-07-24T02:23:20.062Z,14.28
2017-07-24T02:24:08.132Z,14.29
2017-07-24T02:24:57.175Z,14.28
2017-07-24T02:25:45.179Z,14.29
2017-07-24T02:26:33.383Z,14.28
2017-07-24T02:27:22.429Z,14.26
2017-07-24T02:28:10.502Z,14.28
2017-07-24T02:28:58.532Z,14.25
2017-07-24T02:29:47.541Z,14.26
2017-07-24T02:30:35.351Z,14.27
2017-07-24T02:31:23.579Z,14.26
2017-07-24T02:32:17.630Z,14.26
2017-07-24T02:33:11.509Z,14.26
2017-07-24T02:34:11.472Z,14.25
2017-07-24T02:35:06.861Z,14.25
2017-07-24T02:36:00.710Z,14.26
2017-07-24T02:36:55.710Z,14.24
2017-07-24T02:37:49.973Z,14.22
2017-07-24T02:38:44.831Z,14.22
2017-07-24T02:39:38.832Z,14.23
2017-07-24T02:40:34.000Z,14.25
2017-07-24T02:41:22.124Z,14.28
2017-07-24T02:42:10.179Z,14.32
2017-07-24T02:42:57.932Z,14.35
2017-07-24T02:43:46.974Z,14.35
2017-07-24T02:44:35.023Z,14.36
2017-07-24T02:45:23.058Z,14.36
2017-07-24T02:46:12.278Z,14.36
2017-07-24T02:47:00.214Z,14.37
2017-07-24T02:47:48.421Z,14.36
2017-07-24T02:48:37.414Z,14.37
2017-07-24T02:49:25.273Z,14.37
2017-07-24T02:50:13.382Z,14.39
2017-07-24T02:51:02.390Z,14.41
2017-07-24T02:51:50.420Z,14.40
2017-07-24T02:52:38.510Z,14.38
2017-07-24T02:53:27.646Z,14.38
2017-07-24T02:54:15.557Z,14.38
2017-07-24T02:55:03.667Z,14.40
2017-07-24T02:55:51.680Z,14.39
2017-07-24T02:56:40.645Z,14.38
2017-07-24T02:57:28.731Z,14.38
2017-07-24T02:58:18.022Z,14.38
2017-07-24T02:59:05.821Z,14.38
2017-07-24T02:59:53.859Z,14.39
2017-07-24T03:00:42.930Z,14.38
2017-07-24T03:01:31.047Z,14.37
2017-07-24T03:02:19.337Z,14.35
2017-07-24T03:03:07.962Z,14.38
2017-07-24T03:03:56.280Z,14.38
2017-07-24T03:04:44.127Z,14.37
2017-07-24T03:05:33.146Z,14.40
2017-07-24T03:06:21.313Z,14.39
2017-07-24T03:07:09.491Z,14.36
2017-07-24T03:07:57.243Z,14.37
2017-07-24T03:08:46.331Z,14.39
2017-07-24T03:09:34.366Z,14.40
2017-07-24T03:10:23.503Z,14.40
2017-07-24T03:11:11.496Z,14.40
2017-07-24T03:11:59.553Z,14.40
2017-07-24T03:12:47.505Z,14.37
2017-07-24T03:13:35.588Z,14.38
2017-07-24T03:14:29.627Z,14.36
2017-07-24T03:15:18.698Z,14.36
2017-07-24T03:16:06.802Z,14.36
2017-07-24T03:16:55.751Z,14.36
2017-07-24T03:17:43.846Z,14.36
2017-07-24T03:18:31.916Z,14.38
2017-07-24T03:19:21.157Z,14.38
2017-07-24T03:20:08.969Z,14.38
2017-07-24T03:20:56.954Z,14.37
2017-07-24T03:21:46.092Z,14.36
2017-07-24T03:22:34.112Z,14.35
2017-07-24T03:23:24.983Z,14.32
2017-07-24T03:24:11.084Z,14.32
2017-07-24T03:24:59.202Z,14.32
2017-07-24T03:25:47.428Z,14.28
2017-07-24T03:26:41.276Z,14.28
2017-07-24T03:27:29.349Z,14.30
2017-07-24T03:28:18.386Z,14.33
2017-07-24T03:29:06.502Z,14.31
2017-07-24T03:29:54.426Z,14.33
2017-07-24T03:30:43.499Z,14.33
2017-07-24T03:31:31.500Z,14.36
2017-07-24T03:32:19.617Z,14.35
2017-07-24T03:33:07.616Z,14.37
2017-07-24T03:33:56.622Z,14.43
2017-07-24T03:34:44.687Z,14.42
2017-07-24T03:35:32.752Z,14.38
2017-07-24T03:36:21.885Z,14.38
2017-07-24T03:37:10.130Z,14.33
2017-07-24T03:37:58.930Z,14.34
2017-07-24T03:38:53.996Z,14.34
2017-07-24T03:39:55.093Z,14.36
2017-07-24T03:40:44.023Z,14.34
2017-07-24T03:41:32.036Z,14.32
2017-07-24T03:42:20.247Z,14.31
2017-07-24T03:43:09.277Z,14.30
2017-07-24T03:43:57.297Z,14.32
2017-07-24T03:44:45.424Z,14.30
2017-07-24T03:45:34.526Z,14.30
2017-07-24T03:46:22.504Z,14.30
2017-07-24T03:47:10.663Z,14.30
2017-07-24T03:47:59.629Z,14.31
2017-07-24T03:48:59.591Z,14.29
2017-07-24T03:49:54.774Z,14.28
2017-07-24T03:50:49.762Z,14.29
2017-07-24T03:51:49.823Z,14.28
2017-07-24T03:52:44.789Z,14.27
2017-07-24T03:53:39.933Z,14.27
2017-07-24T03:54:33.790Z,14.28
2017-07-24T03:55:33.938Z,14.28
2017-07-24T03:56:29.002Z,14.28
2017-07-24T03:57:28.749Z,14.27
2017-07-24T03:58:29.837Z,14.26
2017-07-24T03:59:23.903Z,14.28
2017-07-24T04:00:23.940Z,14.29
2017-07-24T04:01:18.913Z,14.30
2017-07-24T04:02:14.303Z,14.31
2017-07-24T04:03:14.155Z,14.35
2017-07-24T04:04:14.046Z,14.34
2017-07-24T04:05:08.044Z,14.32
2017-07-24T04:06:08.144Z,14.35
2017-07-24T04:07:03.312Z,14.33
2017-07-24T04:07:58.428Z,14.36
2017-07-24T04:08:52.363Z,14.34
2017-07-24T04:09:52.480Z,14.37
2017-07-24T04:10:47.309Z,14.34
2017-07-24T04:11:47.332Z,14.39
2017-07-24T04:12:47.341Z,14.36
2017-07-24T04:13:47.429Z,14.38
2017-07-24T04:14:41.498Z,14.38
2017-07-24T04:15:41.527Z,14.42
2017-07-24T04:16:35.546Z,14.38
2017-07-24T04:17:30.627Z,14.41
2017-07-24T04:18:18.770Z,14.40
2017-07-24T04:19:12.667Z,14.43
2017-07-24T04:20:00.632Z,14.46
2017-07-24T04:20:48.704Z,14.44
2017-07-24T04:21:37.806Z,14.41
2017-07-24T04:22:32.812Z,14.45
2017-07-24T04:23:33.842Z,14.48
2017-07-24T04:24:33.881Z,14.50
2017-07-24T04:25:28.934Z,14.53
2017-07-24T04:26:28.961Z,14.46
2017-07-24T04:27:30.100Z,14.46
2017-07-24T04:28:23.981Z,14.51
2017-07-24T04:29:24.014Z,14.54
2017-07-24T04:30:19.420Z,14.50
2017-07-24T04:31:07.342Z,14.52
2017-07-24T04:32:07.395Z,14.56
2017-07-24T04:33:02.317Z,14.56
2017-07-24T04:33:57.356Z,14.50
2017-07-24T04:34:57.469Z,14.60
2017-07-24T04:36:03.634Z,14.54
2017-07-24T04:36:57.590Z,14.54
2017-07-24T04:37:51.672Z,14.48
2017-07-24T04:38:46.601Z,14.56
2017-07-24T04:39:40.720Z,14.56
2017-07-24T04:40:28.801Z,14.50
2017-07-24T04:41:22.775Z,14.57
2017-07-24T04:42:10.874Z,14.54
2017-07-24T04:42:58.633Z,14.56
2017-07-24T04:43:46.834Z,14.59
2017-07-24T04:44:35.707Z,14.62
2017-07-24T04:45:23.896Z,14.63
2017-07-24T04:46:11.849Z,14.62
2017-07-24T04:47:00.969Z,14.66
2017-07-24T04:47:48.999Z,14.63
2017-07-24T04:48:36.989Z,14.72
2017-07-24T04:49:24.995Z,14.74
2017-07-24T04:50:19.120Z,14.73
2017-07-24T04:51:20.301Z,14.66
2017-07-24T04:52:21.263Z,14.65
2017-07-24T04:53:16.291Z,14.66
2017-07-24T04:54:05.421Z,14.62
2017-07-24T04:54:59.436Z,14.65
2017-07-24T04:55:53.398Z,14.65
2017-07-24T04:56:53.385Z,14.69
2017-07-24T04:57:48.588Z,14.68
2017-07-24T04:58:48.447Z,14.68
2017-07-24T04:59:42.470Z,14.70
2017-07-24T05:00:42.508Z,14.67
2017-07-24T05:01:37.614Z,14.61
2017-07-24T05:02:37.525Z,14.68
2017-07-24T05:03:38.769Z,14.70
2017-07-24T05:04:39.626Z,14.65
2017-07-24T05:05:40.664Z,14.63
2017-07-24T05:06:34.676Z,14.64
2017-07-24T05:07:34.718Z,14.64
2017-07-24T05:08:29.759Z,14.63
2017-07-24T05:09:17.880Z,14.64
2017-07-24T05:10:11.876Z,14.68
2017-07-24T05:10:59.918Z,14.64
2017-07-24T05:11:48.996Z,14.64
2017-07-24T05:12:38.021Z,14.66
2017-07-24T05:13:32.191Z,14.67
2017-07-24T05:14:21.203Z,14.68
2017-07-24T05:15:09.129Z,14.68
2017-07-24T05:15:57.313Z,14.69
2017-07-24T05:16:46.415Z,14.67
2017-07-24T05:17:41.371Z,14.64
2017-07-24T05:18:41.452Z,14.68
2017-07-24T05:19:30.566Z,14.68
2017-07-24T05:20:19.641Z,14.72
2017-07-24T05:21:07.686Z,14.71
2017-07-24T05:22:01.632Z,14.65
2017-07-24T05:22:49.702Z,14.72
2017-07-24T05:23:38.715Z,14.70
2017-07-24T05:24:26.828Z,14.74
2017-07-24T05:25:15.795Z,14.72
2017-07-24T05:26:09.631Z,14.66
2017-07-24T05:27:04.907Z,14.72
2017-07-24T05:27:53.715Z,14.68
2017-07-24T05:28:41.987Z,14.72
2017-07-24T05:29:29.895Z,14.73
2017-07-24T05:30:17.959Z,14.71
2017-07-24T05:31:05.933Z,14.74
2017-07-24T05:31:55.016Z,14.73
2017-07-24T05:32:49.085Z,14.73
2017-07-24T05:33:43.021Z,14.73
2017-07-24T05:34:37.096Z,14.71
2017-07-24T05:35:25.297Z,14.76
2017-07-24T05:36:25.204Z,14.65
2017-07-24T05:37:19.447Z,14.76
2017-07-24T05:38:07.415Z,14.76
2017-07-24T05:39:07.331Z,14.71
2017-07-24T05:40:02.325Z,14.73
2017-07-24T05:41:02.537Z,14.76
2017-07-24T05:41:56.482Z,14.76
2017-07-24T05:42:45.517Z,14.78
2017-07-24T05:43:34.574Z,14.79
2017-07-24T05:44:22.555Z,14.80
2017-07-24T05:45:10.586Z,14.87
2017-07-24T05:45:58.675Z,14.81
2017-07-24T05:46:47.735Z,14.79
2017-07-24T05:47:35.777Z,14.80
2017-07-24T05:48:24.812Z,14.80
2017-07-24T05:49:19.856Z,14.84
2017-07-24T05:50:08.909Z,14.84
2017-07-24T05:51:03.955Z,14.79
2017-07-24T05:51:58.034Z,14.78
2017-07-24T05:52:46.120Z,14.76
2017-07-24T05:53:40.014Z,14.74
2017-07-24T05:54:41.023Z,14.78
2017-07-24T05:55:36.193Z,14.80
2017-07-24T05:56:36.319Z,14.73
2017-07-24T05:57:36.227Z,14.77
2017-07-24T05:58:36.333Z,14.80
2017-07-24T05:59:36.223Z,14.79
2017-07-24T06:00:36.420Z,14.81
2017-07-24T06:01:31.379Z,14.76
2017-07-24T06:02:19.412Z,14.78
2017-07-24T06:03:08.451Z,14.80
2017-07-24T06:03:57.582Z,14.86
2017-07-24T06:04:52.554Z,14.82
2017-07-24T06:05:40.563Z,14.92
2017-07-24T06:06:40.532Z,14.92
2017-07-24T06:07:34.620Z,14.96
2017-07-24T06:08:36.087Z,14.95
2017-07-24T06:09:35.677Z,14.93
2017-07-24T06:10:35.733Z,14.92
2017-07-24T06:11:29.750Z,14.94
2017-07-24T06:12:29.765Z,14.84
2017-07-24T06:13:23.882Z,14.92
2017-07-24T06:14:18.172Z,14.91
2017-07-24T06:15:07.003Z,14.84
2017-07-24T06:16:02.239Z,14.88
2017-07-24T06:16:55.984Z,14.85
2017-07-24T06:17:50.331Z,14.82
2017-07-24T06:18:44.046Z,14.84
2017-07-24T06:19:39.454Z,14.83
2017-07-24T06:20:39.163Z,14.83
2017-07-24T06:21:33.225Z,14.92
2017-07-24T06:22:28.486Z,14.88
2017-07-24T06:23:17.250Z,14.94
2017-07-24T06:24:06.313Z,14.97
2017-07-24T06:24:55.676Z,15.03
2017-07-24T06:25:49.451Z,15.02
2017-07-24T06:26:43.447Z,15.08
2017-07-24T06:27:44.543Z,15.10
2017-07-24T06:28:44.540Z,15.11
2017-07-24T06:29:44.565Z,15.07
2017-07-24T06:30:44.952Z,15.15
2017-07-24T06:31:44.685Z,15.13
2017-07-24T06:32:44.705Z,15.10
2017-07-24T06:33:44.739Z,15.07
2017-07-24T06:34:44.827Z,15.15
2017-07-24T06:35:44.773Z,15.14
2017-07-24T06:36:44.812Z,15.09
2017-07-24T06:37:44.857Z,15.10
2017-07-24T06:38:44.858Z,15.12
2017-07-24T06:39:44.993Z,15.20
2017-07-24T06:40:44.946Z,15.18
2017-07-24T06:41:45.151Z,15.13
2017-07-24T06:42:34.010Z,15.09
2017-07-24T06:43:22.309Z,15.12
2017-07-24T06:44:10.148Z,15.10
2017-07-24T06:44:59.277Z,15.12
2017-07-24T06:45:54.252Z,15.14
2017-07-24T06:46:54.203Z,15.21
2017-07-24T06:47:54.377Z,15.14
2017-07-24T06:48:48.414Z,15.16
2017-07-24T06:49:36.371Z,15.21
2017-07-24T06:50:30.397Z,15.13
2017-07-24T06:51:19.476Z,15.07
2017-07-24T06:52:13.766Z,15.04
2017-07-24T06:53:13.521Z,15.04
2017-07-24T06:54:07.622Z,15.10
2017-07-24T06:55:07.693Z,15.14
2017-07-24T06:56:07.644Z,15.18
2017-07-24T06:57:07.750Z,15.16
2017-07-24T06:57:55.784Z,15.18
2017-07-24T06:58:43.906Z,15.23
2017-07-24T06:59:31.867Z,15.20
2017-07-24T07:00:20.889Z,15.18
2017-07-24T07:01:14.984Z,15.22
2017-07-24T07:02:09.978Z,15.17
2017-07-24T07:02:59.060Z,15.24
2017-07-24T07:03:53.057Z,15.18
2017-07-24T07:04:42.430Z,15.07
2017-07-24T07:05:31.154Z,15.08
2017-07-24T07:06:20.371Z,15.02
2017-07-24T07:07:08.257Z,15.05
2017-07-24T07:07:57.478Z,15.04
2017-07-24T07:08:46.328Z,14.96
2017-07-24T07:09:40.582Z,14.98
2017-07-24T07:10:29.417Z,15.01
2017-07-24T07:11:17.518Z,15.02
2017-07-24T07:12:17.830Z,15.14
2017-07-24T07:13:12.710Z,15.11
2017-07-24T07:14:00.643Z,15.16
2017-07-24T07:14:49.636Z,15.12
2017-07-24T07:15:43.789Z,15.16
2017-07-24T07:16:43.700Z,15.28
2017-07-24T07:17:43.914Z,15.34
2017-07-24T07:18:32.848Z,15.36
2017-07-24T07:19:21.922Z,15.24
2017-07-24T07:20:10.885Z,15.15
2017-07-24T07:20:58.981Z,15.08
2017-07-24T07:21:47.982Z,14.96
2017-07-24T07:22:36.258Z,14.84
2017-07-24T07:23:30.105Z,14.80
2017-07-24T07:24:24.275Z,14.84
2017-07-24T07:25:13.443Z,14.85
2017-07-24T07:26:01.537Z,14.80
2017-07-24T07:26:50.504Z,14.76
2017-07-24T07:27:39.474Z,14.82
2017-07-24T07:28:33.481Z,14.84
2017-07-24T07:29:28.647Z,14.81
2017-07-24T07:30:23.566Z,14.86
2017-07-24T07:31:12.801Z,14.94
2017-07-24T07:32:12.808Z,14.88
2017-07-24T07:33:06.595Z,14.93
2017-07-24T07:34:07.607Z,15.05
2017-07-24T07:35:07.649Z,14.99
2017-07-24T07:36:02.619Z,15.02
2017-07-24T07:36:57.715Z,15.02
2017-07-24T07:37:58.898Z,15.03
2017-07-24T07:38:58.994Z,15.02
2017-07-24T07:39:54.106Z,15.14
2017-07-24T07:40:49.786Z,15.10
2017-07-24T07:41:49.075Z,15.04
2017-07-24T07:42:44.142Z,15.06
2017-07-24T07:43:39.137Z,15.03
2017-07-24T07:44:28.145Z,15.10
2017-07-24T07:45:22.232Z,14.99
2017-07-24T07:46:22.320Z,15.02
2017-07-24T07:47:16.441Z,15.03
2017-07-24T07:48:16.447Z,15.08
2017-07-24T07:49:11.527Z,15.12
2017-07-24T07:50:23.516Z,15.14
2017-07-24T07:51:18.511Z,15.19
2017-07-24T07:52:13.659Z,15.12
2017-07-24T07:53:13.528Z,15.16
2017-07-24T07:54:08.783Z,15.16
2017-07-24T07:55:03.684Z,15.16
2017-07-24T07:56:03.773Z,15.18
2017-07-24T07:57:03.669Z,15.28
2017-07-24T07:57:57.775Z,15.29
2017-07-24T07:58:57.872Z,15.34
2017-07-24T07:59:52.891Z,15.36
2017-07-24T08:00:58.908Z,15.36
2017-07-24T08:01:59.049Z,15.44
2017-07-24T08:02:59.976Z,15.48
2017-07-24T08:04:01.040Z,15.41
2017-07-24T08:05:01.366Z,15.49
2017-07-24T08:06:01.145Z,15.52
2017-07-24T08:06:55.192Z,15.50
2017-07-24T08:07:56.211Z,15.44
2017-07-24T08:08:56.264Z,15.36
2017-07-24T08:09:51.320Z,15.38
2017-07-24T08:10:46.320Z,15.44
2017-07-24T08:11:47.425Z,15.53
2017-07-24T08:12:47.392Z,15.44
2017-07-24T08:13:42.378Z,15.49
2017-07-24T08:14:37.401Z,15.57
2017-07-24T08:15:37.541Z,15.55
2017-07-24T08:16:32.747Z,15.61
2017-07-24T08:17:27.592Z,15.66
2017-07-24T08:18:21.650Z,15.67
2017-07-24T08:19:22.703Z,15.70
2017-07-24T08:20:17.651Z,15.57
2017-07-24T08:21:17.791Z,15.50
2017-07-24T08:22:07.071Z,15.46
2017-07-24T08:22:55.784Z,15.42
2017-07-24T08:23:43.897Z,15.46
2017-07-24T08:24:31.960Z,15.56
2017-07-24T08:25:21.045Z,15.52
2017-07-24T08:26:09.065Z,15.58
2017-07-24T08:26:58.057Z,15.61
2017-07-24T08:27:58.112Z,15.60
2017-07-24T08:28:47.155Z,15.66
2017-07-24T08:29:35.221Z,15.60
2017-07-24T08:30:24.327Z,15.66
2017-07-24T08:31:24.285Z,15.73
2017-07-24T08:32:18.309Z,15.59
2017-07-24T08:33:13.398Z,15.48
2017-07-24T08:34:08.378Z,15.54
2017-07-24T08:35:08.429Z,15.54
2017-07-24T08:36:09.548Z,15.62
2017-07-24T08:37:09.548Z,15.70
2017-07-24T08:38:04.588Z,15.60
2017-07-24T08:39:04.624Z,15.64
2017-07-24T08:39:59.656Z,15.71
2017-07-24T08:40:54.776Z,15.76
2017-07-24T08:41:48.730Z,15.86
2017-07-24T08:42:48.768Z,15.96
2017-07-24T08:43:43.625Z,15.92
2017-07-24T08:44:43.684Z,15.83
2017-07-24T08:45:43.648Z,15.90
2017-07-24T08:46:32.882Z,15.99
2017-07-24T08:47:21.038Z,15.90
2017-07-24T08:48:20.955Z,15.84
2017-07-24T08:49:21.074Z,15.92
2017-07-24T08:50:15.078Z,15.94
2017-07-24T08:51:09.167Z,16.02
2017-07-24T08:52:03.211Z,16.02
2017-07-24T08:52:52.061Z,16.09
2017-07-24T08:53:47.216Z,16.02
2017-07-24T08:54:47.232Z,16.03
2017-07-24T08:55:36.364Z,16.11
2017-07-24T08:56:24.257Z,16.25
2017-07-24T08:57:19.786Z,16.33
2017-07-24T08:58:14.503Z,16.49
2017-07-24T08:59:08.509Z,16.58
2017-07-24T09:00:03.375Z,16.47
2017-07-24T09:01:03.710Z,16.44
2017-07-24T09:01:52.675Z,16.46
2017-07-24T09:02:41.626Z,16.40
2017-07-24T09:03:35.646Z,16.32
2017-07-24T09:04:30.792Z,16.37
2017-07-24T09:05:19.667Z,16.38
2017-07-24T09:06:20.085Z,16.42
2017-07-24T09:07:07.982Z,16.47
2017-07-24T09:07:56.735Z,16.43
2017-07-24T09:08:50.908Z,16.44
2017-07-24T09:09:39.833Z,16.48
2017-07-24T09:10:45.858Z,16.55
2017-07-24T09:11:41.494Z,16.62
2017-07-24T09:12:30.260Z,16.60
2017-07-24T09:13:19.215Z,16.52
2017-07-24T09:14:13.216Z,16.57
2017-07-24T09:15:01.339Z,16.58
2017-07-24T09:15:49.383Z,16.57
2017-07-24T09:16:38.458Z,16.48
2017-07-24T09:17:27.594Z,16.47
2017-07-24T09:18:21.558Z,16.53
2017-07-24T09:19:15.619Z,16.47
2017-07-24T09:20:04.636Z,16.46
2017-07-24T09:20:53.629Z,16.60
2017-07-24T09:21:47.716Z,16.63
2017-07-24T09:22:42.749Z,16.71
2017-07-24T09:23:36.774Z,16.65
2017-07-24T09:24:24.830Z,16.64
2017-07-24T09:25:18.843Z,16.54
2017-07-24T09:26:13.842Z,16.54
2017-07-24T09:27:08.059Z,16.58
2017-07-24T09:28:03.001Z,16.49
2017-07-24T09:28:51.042Z,16.35
2017-07-24T09:29:51.134Z,16.30
2017-07-24T09:30:46.166Z,16.29
2017-07-24T09:31:34.174Z,16.28
2017-07-24T09:32:34.222Z,16.32
2017-07-24T09:33:29.260Z,16.32
2017-07-24T09:34:29.343Z,16.40
2017-07-24T09:35:24.327Z,16.41
2017-07-24T09:36:18.378Z,16.42
2017-07-24T09:37:19.516Z,16.41
2017-07-24T09:38:13.491Z,16.38
2017-07-24T09:39:13.525Z,16.40
2017-07-24T09:40:02.571Z,16.42
2017-07-24T09:40:56.630Z,16.40
2017-07-24T09:41:51.685Z,16.46
2017-07-24T09:42:39.825Z,16.49
2017-07-24T09:43:33.802Z,16.46
2017-07-24T09:44:33.864Z,16.50
2017-07-24T09:45:21.659Z,16.58
2017-07-24T09:46:21.648Z,16.44
2017-07-24T09:47:17.003Z,16.40
2017-07-24T09:48:05.917Z,16.50
2017-07-24T09:49:00.994Z,16.44
2017-07-24T09:50:01.105Z,16.48
2017-07-24T09:50:56.041Z,16.44
2017-07-24T09:51:51.154Z,16.47
2017-07-24T09:52:45.148Z,16.56
2017-07-24T09:53:45.108Z,16.62
2017-07-24T09:54:40.313Z,16.64
2017-07-24T09:55:29.239Z,16.65
2017-07-24T09:56:23.473Z,16.68
2017-07-24T09:57:17.487Z,16.61
2017-07-24T09:58:17.502Z,16.55
2017-07-24T09:59:06.521Z,16.54
2017-07-24T09:59:55.518Z,16.52
2017-07-24T10:00:43.762Z,16.67
2017-07-24T10:01:43.668Z,16.64
2017-07-24T10:02:38.650Z,16.62
2017-07-24T10:03:32.824Z,16.62
2017-07-24T10:04:32.796Z,16.72
2017-07-24T10:05:21.794Z,16.58
2017-07-24T10:06:15.859Z,16.54
2017-07-24T10:07:10.894Z,16.46
2017-07-24T10:08:04.906Z,16.40
2017-07-24T10:08:52.968Z,16.48
2017-07-24T10:09:41.080Z,16.56
2017-07-24T10:10:29.059Z,16.66
2017-07-24T10:11:18.116Z,16.60
2017-07-24T10:12:07.150Z,16.60
2017-07-24T10:12:56.143Z,16.72
2017-07-24T10:13:56.304Z,16.60
2017-07-24T10:14:45.266Z,16.66
2017-07-24T10:15:39.330Z,16.68
2017-07-24T10:16:34.411Z,16.62
2017-07-24T10:17:29.474Z,16.60
2017-07-24T10:18:24.240Z,16.80
2017-07-24T10:19:24.534Z,16.96
2017-07-24T10:20:18.585Z,17.08
2017-07-24T10:21:12.621Z,16.94
2017-07-24T10:22:06.982Z,16.79
2017-07-24T10:22:55.687Z,16.82
2017-07-24T10:23:44.799Z,16.85
2017-07-24T10:24:33.840Z,16.87
2017-07-24T10:25:22.815Z,16.94
2017-07-24T10:26:10.871Z,16.95
2017-07-24T10:27:04.932Z,16.92
2017-07-24T10:27:53.936Z,16.85
2017-07-24T10:28:48.138Z,16.69
2017-07-24T10:29:48.120Z,16.56
2017-07-24T10:30:43.153Z,16.51
2017-07-24T10:31:37.160Z,16.50
2017-07-24T10:32:32.201Z,16.47
2017-07-24T10:33:32.511Z,16.39
2017-07-24T10:34:32.273Z,16.34
2017-07-24T10:35:26.278Z,16.35
2017-07-24T10:36:26.395Z,16.33
2017-07-24T10:37:26.486Z,16.30
2017-07-24T10:38:20.500Z,16.26
2017-07-24T10:39:20.920Z,16.24
2017-07-24T10:40:20.565Z,16.24
2017-07-24T10:41:09.540Z,16.29
2017-07-24T10:42:04.621Z,16.40
2017-07-24T10:42:58.653Z,16.46
2017-07-24T10:43:52.700Z,16.57
2017-07-24T10:44:47.740Z,16.60
2017-07-24T10:45:36.727Z,16.63
2017-07-24T10:46:25.867Z,16.74
2017-07-24T10:47:19.934Z,16.77
2017-07-24T10:48:14.008Z,16.64
2017-07-24T10:49:08.991Z,16.62
2017-07-24T10:50:09.236Z,16.74
2017-07-24T10:51:04.085Z,16.87
2017-07-24T10:51:52.972Z,16.98
2017-07-24T10:52:47.262Z,16.99
2017-07-24T10:53:41.242Z,17.12
2017-07-24T10:54:29.328Z,17.24
2017-07-24T10:55:18.630Z,17.37
2017-07-24T10:56:18.372Z,17.34
2017-07-24T10:57:12.413Z,17.24
2017-07-24T10:58:13.484Z,17.00
2017-07-24T10:59:02.564Z,16.86
2017-07-24T10:59:57.556Z,16.68
2017-07-24T11:00:51.618Z,16.66
2017-07-24T11:01:39.654Z,16.88
2017-07-24T11:02:28.722Z,16.96
2017-07-24T11:03:16.743Z,16.99
2017-07-24T11:04:10.825Z,17.16
2017-07-24T11:05:10.845Z,17.07
2017-07-24T11:06:00.796Z,17.06
2017-07-24T11:06:54.914Z,16.94
2017-07-24T11:08:00.980Z,16.87
2017-07-24T11:08:55.966Z,16.90
2017-07-24T11:09:50.024Z,17.02
2017-07-24T11:10:45.053Z,17.05
2017-07-24T11:11:39.319Z,16.75
2017-07-24T11:12:28.195Z,16.88
2017-07-24T11:13:16.263Z,17.15